createdAt,value
2023-05-22T00:03:40.822Z,69.35
2023-05-22T00:08:51.477Z,69.36
2023-05-22T00:14:01.830Z,69.29
2023-05-22T00:19:19.762Z,69.38
2023-05-22T00:24:24.981Z,69.38
2023-05-22T00:29:38.181Z,69.47
2023-05-22T00:34:51.315Z,69.59
2023-05-22T00:40:07.933Z,69.68
2023-05-22T00:45:15.621Z,69.56
2023-05-22T00:50:33.433Z,69.62
2023-05-22T00:55:45.216Z,69.62
2023-05-22T01:01:02.362Z,69.64
2023-05-22T01:06:24.503Z,69.82
2023-05-22T01:11:55.744Z,70.12
2023-05-22T01:17:35.626Z,70.35
2023-05-22T01:23:33.680Z,70.50
2023-05-22T01:29:12.950Z,70.74
2023-05-22T01:34:33.197Z,71.04
2023-05-22T01:39:54.012Z,71.19
2023-05-22T01:44:59.654Z,71.40
2023-05-22T01:50:08.522Z,71.38
2023-05-22T01:55:43.059Z,71.63
2023-05-22T02:00:55.817Z,71.76
2023-05-22T02:06:07.041Z,71.75
2023-05-22T02:11:32.783Z,71.84
2023-05-22T02:16:47.740Z,71.86
2023-05-22T02:22:18.489Z,72.04
2023-05-22T02:27:32.439Z,72.04
2023-05-22T02:32:43.467Z,72.26
2023-05-22T02:37:46.404Z,72.31
2023-05-22T02:42:55.230Z,72.25
2023-05-22T02:48:20.881Z,72.37
2023-05-22T02:53:35.291Z,72.72
2023-05-22T02:58:40.195Z,72.75
2023-05-22T03:03:48.295Z,72.85
2023-05-22T03:09:08.799Z,72.86
2023-05-22T03:14:37.001Z,73.00
2023-05-22T03:19:45.864Z,72.80
2023-05-22T03:24:52.451Z,72.70
2023-05-22T03:30:14.018Z,72.72
2023-05-22T03:35:25.210Z,72.42
2023-05-22T03:40:33.200Z,72.23
2023-05-22T03:46:04.038Z,71.98
2023-05-22T03:51:46.524Z,71.46
2023-05-22T03:56:59.426Z,71.43
2023-05-22T04:02:16.835Z,70.91
2023-05-22T04:07:27.644Z,70.49
2023-05-22T04:12:41.023Z,70.40
2023-05-22T04:17:46.193Z,70.24
2023-05-22T04:22:59.312Z,70.14
2023-05-22T04:28:32.331Z,70.23
2023-05-22T04:33:48.481Z,70.45
2023-05-22T04:38:56.464Z,70.62
2023-05-22T04:44:04.172Z,70.80
2023-05-22T04:49:06.673Z,70.78
2023-05-22T04:54:09.665Z,70.85
2023-05-22T04:59:16.427Z,70.70
2023-05-22T05:04:24.719Z,71.03
2023-05-22T05:09:35.086Z,70.76
2023-05-22T05:14:39.352Z,70.73
2023-05-22T05:19:45.149Z,70.47
2023-05-22T05:24:50.433Z,70.26
2023-05-22T05:29:55.221Z,69.51
2023-05-22T05:35:05.742Z,69.32
2023-05-22T05:40:48.025Z,68.89
2023-05-22T05:45:57.509Z,68.71
2023-05-22T05:51:02.940Z,68.49
2023-05-22T05:56:12.967Z,67.91
2023-05-22T06:01:30.023Z,66.89
2023-05-22T06:06:37.866Z,66.59
2023-05-22T06:11:40.198Z,66.36
2023-05-22T06:16:59.179Z,65.98
2023-05-22T06:22:08.791Z,65.65
2023-05-22T06:27:16.651Z,64.73
2023-05-22T06:32:25.206Z,64.82
2023-05-22T06:37:44.175Z,64.39
2023-05-22T06:42:47.307Z,64.13
2023-05-22T06:48:07.693Z,63.69
2023-05-22T06:53:19.826Z,63.91
2023-05-22T06:58:28.010Z,63.34
2023-05-22T07:03:36.651Z,62.98
2023-05-22T07:09:22.853Z,63.03
2023-05-22T07:14:32.778Z,62.73
2023-05-22T07:19:38.937Z,62.42
2023-05-22T07:25:12.160Z,61.64
2023-05-22T07:30:24.241Z,60.84
2023-05-22T07:35:43.252Z,59.85
2023-05-22T07:41:07.919Z,58.51
2023-05-22T07:46:17.905Z,57.62
2023-05-22T07:51:32.159Z,56.82
2023-05-22T07:56:41.767Z,56.19
2023-05-22T08:01:48.493Z,54.89
2023-05-22T08:06:53.650Z,53.63
2023-05-22T08:11:59.018Z,52.72
2023-05-22T08:17:01.889Z,52.03
2023-05-22T08:22:04.543Z,50.83
2023-05-22T08:27:07.456Z,50.93
2023-05-22T08:32:10.284Z,50.23
2023-05-22T08:37:14.421Z,49.44
2023-05-22T08:42:16.769Z,48.76
2023-05-22T08:47:20.545Z,47.74
2023-05-22T08:52:26.335Z,47.22
2023-05-22T08:57:32.575Z,47.42
2023-05-22T09:02:38.202Z,47.49
2023-05-22T09:07:42.754Z,47.40
2023-05-22T09:13:11.402Z,47.45
2023-05-22T09:18:16.531Z,47.98
2023-05-22T09:23:21.649Z,47.28
2023-05-22T09:28:24.607Z,47.65
2023-05-22T09:33:26.640Z,47.40
2023-05-22T09:38:30.906Z,46.41
2023-05-22T09:43:33.908Z,46.03
2023-05-22T09:48:37.430Z,45.31
2023-05-22T09:53:43.392Z,44.90
2023-05-22T09:58:47.823Z,44.62
2023-05-22T10:03:55.106Z,44.07
2023-05-22T10:09:18.768Z,44.39
2023-05-22T10:14:23.864Z,43.58
2023-05-22T10:19:29.463Z,43.10
2023-05-22T10:24:35.226Z,42.55
2023-05-22T10:29:45.064Z,42.68
2023-05-22T10:34:56.321Z,42.13
2023-05-22T10:40:04.982Z,42.08
2023-05-22T10:45:08.986Z,42.03
2023-05-22T10:50:12.211Z,41.47
2023-05-22T10:55:22.842Z,41.45
2023-05-22T11:00:25.189Z,41.39
2023-05-22T11:05:29.875Z,41.30
2023-05-22T11:10:53.078Z,41.00
2023-05-22T11:15:58.270Z,40.75
2023-05-22T11:21:01.375Z,41.05
2023-05-22T11:26:25.549Z,41.08
2023-05-22T11:31:30.525Z,40.97
2023-05-22T11:36:32.688Z,41.27
2023-05-22T11:41:37.534Z,41.97
2023-05-22T11:46:40.390Z,42.13
2023-05-22T11:51:42.941Z,42.31
2023-05-22T11:56:46.407Z,42.61
2023-05-22T12:01:50.512Z,42.90
2023-05-22T12:06:56.171Z,42.80
2023-05-22T12:12:02.017Z,42.96
2023-05-22T12:17:05.314Z,43.13
2023-05-22T12:22:14.970Z,43.28
2023-05-22T12:27:17.017Z,43.30
2023-05-22T12:32:22.211Z,43.57
2023-05-22T12:37:25.948Z,44.20
2023-05-22T12:42:39.140Z,44.37
2023-05-22T12:47:43.886Z,44.14
2023-05-22T12:52:46.188Z,44.31
2023-05-22T12:57:48.202Z,43.58
2023-05-22T13:02:50.558Z,43.47
2023-05-22T13:07:53.164Z,43.96
2023-05-22T13:12:58.095Z,44.58
2023-05-22T13:18:00.069Z,44.28
2023-05-22T13:23:02.102Z,44.24
2023-05-22T13:28:04.378Z,44.42
2023-05-22T13:33:09.067Z,44.51
2023-05-22T13:38:11.171Z,43.97
2023-05-22T13:43:14.552Z,44.16
2023-05-22T13:48:16.948Z,43.92
2023-05-22T13:53:22.194Z,42.74
2023-05-22T13:58:24.575Z,42.98
2023-05-22T14:03:27.674Z,42.68
2023-05-22T14:08:30.026Z,43.05
2023-05-22T14:13:32.013Z,42.59
2023-05-22T14:18:34.180Z,42.52
2023-05-22T14:23:36.554Z,43.18
2023-05-22T14:28:41.716Z,43.39
2023-05-22T14:33:44.176Z,43.38
2023-05-22T14:38:46.823Z,43.01
2023-05-22T14:43:49.759Z,43.22
2023-05-22T14:48:51.873Z,43.23
2023-05-22T14:53:53.864Z,43.39
2023-05-22T14:58:56.157Z,43.07
2023-05-22T15:03:58.129Z,42.81
2023-05-22T15:09:00.110Z,42.52
2023-05-22T15:14:02.157Z,43.07
2023-05-22T15:19:04.450Z,43.24
2023-05-22T15:24:06.748Z,43.01
2023-05-22T15:29:09.031Z,42.88
2023-05-22T15:34:11.244Z,43.64
2023-05-22T15:39:13.264Z,44.45
2023-05-22T15:44:15.729Z,43.85
2023-05-22T15:49:17.960Z,43.78
2023-05-22T15:54:20.514Z,44.62
2023-05-22T15:59:22.823Z,45.49
2023-05-22T16:04:25.132Z,46.31
2023-05-22T16:09:27.294Z,46.44
2023-05-22T16:14:29.629Z,45.92
2023-05-22T16:19:33.580Z,46.09
2023-05-22T16:24:36.118Z,46.15
2023-05-22T16:29:38.198Z,45.78
2023-05-22T16:34:40.293Z,45.25
2023-05-22T16:39:46.237Z,45.15
2023-05-22T16:44:49.010Z,45.66
2023-05-22T16:49:54.418Z,46.19
2023-05-22T16:54:56.819Z,46.35
2023-05-22T17:00:05.333Z,46.75
2023-05-22T17:05:08.241Z,47.23
2023-05-22T17:10:10.928Z,47.28
2023-05-22T17:15:16.435Z,47.76
2023-05-22T17:20:18.966Z,48.16
2023-05-22T17:25:21.455Z,47.85
2023-05-22T17:30:23.985Z,47.34
2023-05-22T17:35:26.587Z,46.58
2023-05-22T17:40:43.231Z,46.72
2023-05-22T17:45:51.427Z,47.20
2023-05-22T17:50:56.370Z,47.93
2023-05-22T17:56:01.386Z,48.42
2023-05-22T18:01:03.362Z,48.95
2023-05-22T18:06:05.831Z,49.77
2023-05-22T18:11:08.151Z,50.43
2023-05-22T18:16:12.481Z,50.99
2023-05-22T18:21:15.030Z,51.40
2023-05-22T18:26:17.378Z,52.16
2023-05-22T18:31:19.673Z,52.54
2023-05-22T18:36:25.567Z,52.72
2023-05-22T18:41:30.093Z,52.83
2023-05-22T18:46:32.529Z,53.17
2023-05-22T18:51:39.633Z,53.65
2023-05-22T18:56:44.614Z,54.06
2023-05-22T19:01:46.936Z,54.65
2023-05-22T19:06:49.078Z,54.91
2023-05-22T19:12:03.881Z,55.07
2023-05-22T19:17:10.205Z,55.64
2023-05-22T19:22:12.683Z,56.15
2023-05-22T19:27:15.164Z,56.52
2023-05-22T19:32:18.078Z,56.73
2023-05-22T19:37:21.865Z,57.03
2023-05-22T19:42:23.865Z,57.35
2023-05-22T19:47:25.902Z,57.53
2023-05-22T19:52:28.076Z,58.10
2023-05-22T19:57:30.129Z,58.20
2023-05-22T20:02:32.105Z,58.82
2023-05-22T20:07:34.064Z,58.72
2023-05-22T20:12:37.666Z,59.20
2023-05-22T20:17:41.579Z,59.45
2023-05-22T20:22:44.461Z,59.89
2023-05-22T20:27:46.475Z,60.12
2023-05-22T20:32:51.989Z,60.29
2023-05-22T20:37:54.111Z,60.49
2023-05-22T20:42:57.169Z,60.81
2023-05-22T20:47:59.545Z,60.66
2023-05-22T20:53:01.712Z,60.81
2023-05-22T20:58:04.652Z,61.15
2023-05-22T21:03:09.099Z,61.55
2023-05-22T21:08:11.373Z,61.69
2023-05-22T21:13:25.733Z,61.91
2023-05-22T21:18:33.444Z,62.14
2023-05-22T21:23:38.420Z,62.24
2023-05-22T21:28:46.127Z,62.33
2023-05-22T21:33:54.206Z,62.64
2023-05-22T21:39:00.389Z,62.86
2023-05-22T21:44:08.704Z,62.88
2023-05-22T21:49:17.159Z,63.27
2023-05-22T21:54:19.707Z,63.55
2023-05-22T21:59:41.087Z,63.43
2023-05-22T22:04:43.835Z,63.66
2023-05-22T22:09:46.418Z,63.77
2023-05-22T22:14:53.977Z,63.59
2023-05-22T22:19:59.108Z,63.78
2023-05-22T22:25:01.505Z,63.65
2023-05-22T22:30:07.359Z,63.79
2023-05-22T22:35:10.589Z,64.20
2023-05-22T22:40:37.582Z,64.39
2023-05-22T22:45:47.555Z,64.11
2023-05-22T22:50:50.135Z,64.45
2023-05-22T22:56:03.101Z,64.62
2023-05-22T23:01:10.561Z,65.05
2023-05-22T23:06:18.187Z,65.37
2023-05-22T23:11:28.133Z,65.50
2023-05-22T23:16:47.633Z,65.75
2023-05-22T23:21:52.823Z,66.08
2023-05-22T23:27:01.134Z,66.48
2023-05-22T23:32:14.586Z,66.66
2023-05-22T23:37:25.077Z,66.93
2023-05-22T23:42:28.669Z,67.35
2023-05-22T23:47:44.517Z,67.71
2023-05-22T23:52:58.211Z,67.98
2023-05-22T23:58:00.879Z,68.18
